<?xml version="1.0" encoding="UTF-8" standalone="no" ?>
<gpx xmlns="http://www.topografix.com/GPX/1/1" xmlns:xsi="http://www.w3.org/2001/XMLSchema-instance" xsi:schemaLocation="http://www.topografix.com/GPX/1/1 http://www.topografix.com/GPX/1/1/gpx.xsd" version="1.1" creator="VisuGPX - https://www.visugpx.com">
  <metadata>
    <name>Velo</name>
    <desc><![CDATA[idor:10246719_102515280_10794639_12973163_1418743_13428926_12998252_13558460_14716825_14357364_14251590]]></desc>
  </metadata>
  <trk>
    <name><![CDATA[Velodyssée_GesvrineNortBoucle_37km-10251580]]></name>
    <extensions>
      <line xmlns="http://www.topografix.com/GPX/gpx_style/0/2">
        <color>00FF00</color>
        <width>4</width>
      </line>
    </extensions>
    <trkseg>
      <trkpt lat="47.26852" lon="-1.54605">
        <ele>30</ele>
        <time>2023-11-15T07:10:24Z</time>
      </trkpt>
      <trkpt lat="47.26882" lon="-1.5462">
        <ele>31</ele>
        <time>2023-11-15T07:11:06Z</time>
      </trkpt>
      <trkpt lat="47.26899" lon="-1.54625">
        <ele>32</ele>
        <time>2023-11-15T07:11:29Z</time>
      </trkpt>
      <trkpt lat="47.27013" lon="-1.54619">
        <ele>32</ele>
        <time>2023-11-15T07:14:02Z</time>
      </trkpt>
      <trkpt lat="47.27038" lon="-1.54621">
        <ele>32</ele>
        <time>2023-11-15T07:14:35Z</time>
      </trkpt>
      <trkpt lat="47.27062" lon="-1.54627">
        <ele>32</ele>
        <time>2023-11-15T07:15:08Z</time>
      </trkpt>
      <trkpt lat="47.27136" lon="-1.54647">
        <ele>31</ele>
        <time>2023-11-15T07:16:48Z</time>
      </trkpt>
      <trkpt lat="47.27237" lon="-1.54681">
        <ele>32</ele>
        <time>2023-11-15T07:19:06Z</time>
      </trkpt>
      <trkpt lat="47.27279" lon="-1.54689">
        <ele>32</ele>
        <time>2023-11-15T07:20:03Z</time>
      </trkpt>
      <trkpt lat="47.27333" lon="-1.54707">
        <ele>32</ele>
        <time>2023-11-15T07:21:17Z</time>
      </trkpt>
      <trkpt lat="47.27349" lon="-1.54715">
        <ele>32</ele>
        <time>2023-11-15T07:21:39Z</time>
      </trkpt>
      <trkpt lat="47.27357" lon="-1.54716">
        <ele>33</ele>
        <time>2023-11-15T07:21:50Z</time>
      </trkpt>
      <trkpt lat="47.27368" lon="-1.54724">
        <ele>33</ele>
        <time>2023-11-15T07:22:06Z</time>
      </trkpt>
      <trkpt lat="47.27406" lon="-1.54771">
        <ele>34</ele>
        <time>2023-11-15T07:23:12Z</time>
      </trkpt>
      <trkpt lat="47.27421" lon="-1.54778">
        <ele>34</ele>
        <time>2023-11-15T07:23:33Z</time>
      </trkpt>
      <trkpt lat="47.27449" lon="-1.54762">
        <ele>35</ele>
        <time>2023-11-15T07:24:13Z</time>
      </trkpt>
      <trkpt lat="47.27456" lon="-1.54752">
        <ele>36</ele>
        <time>2023-11-15T07:24:26Z</time>
      </trkpt>
      <trkpt lat="47.27468" lon="-1.54749">
        <ele>36</ele>
        <time>2023-11-15T07:24:43Z</time>
      </trkpt>
      <trkpt lat="47.27487" lon="-1.54749">
        <ele>37</ele>
        <time>2023-11-15T07:25:08Z</time>
      </trkpt>
      <trkpt lat="47.27516" lon="-1.54755">
        <ele>38</ele>
        <time>2023-11-15T07:25:47Z</time>
      </trkpt>
      <trkpt lat="47.27571" lon="-1.54772">
        <ele>37</ele>
        <time>2023-11-15T07:27:02Z</time>
      </trkpt>
      <trkpt lat="47.27577" lon="-1.54776">
        <ele>37</ele>
        <time>2023-11-15T07:27:11Z</time>
      </trkpt>
      <trkpt lat="47.27583" lon="-1.54781">
        <ele>37</ele>
        <time>2023-11-15T07:27:20Z</time>
      </trkpt>
      <trkpt lat="47.27599" lon="-1.54817">
        <ele>38</ele>
        <time>2023-11-15T07:27:59Z</time>
      </trkpt>
      <trkpt lat="47.2761" lon="-1.54826">
        <ele>38</ele>
        <time>2023-11-15T07:28:16Z</time>
      </trkpt>
      <trkpt lat="47.27625" lon="-1.54828">
        <ele>38</ele>
        <time>2023-11-15T07:28:36Z</time>
      </trkpt>
      <trkpt lat="47.27658" lon="-1.54814">
        <ele>38</ele>
        <time>2023-11-15T07:29:22Z</time>
      </trkpt>
      <trkpt lat="47.27687" lon="-1.54816">
        <ele>38</ele>
        <time>2023-11-15T07:30:01Z</time>
      </trkpt>
      <trkpt lat="47.27728" lon="-1.54825">
        <ele>37</ele>
        <time>2023-11-15T07:30:56Z</time>
      </trkpt>
      <trkpt lat="47.28022" lon="-1.5491">
        <ele>25</ele>
        <time>2023-11-15T07:37:36Z</time>
      </trkpt>
      <trkpt lat="47.28142" lon="-1.54948">
        <ele>27</ele>
        <time>2023-11-15T07:40:19Z</time>
      </trkpt>
      <trkpt lat="47.28219" lon="-1.54965">
        <ele>27</ele>
        <time>2023-11-15T07:42:03Z</time>
      </trkpt>
      <trkpt lat="47.28269" lon="-1.54972">
        <ele>28</ele>
        <time>2023-11-15T07:43:10Z</time>
      </trkpt>
      <trkpt lat="47.28291" lon="-1.54987">
        <ele>28</ele>
        <time>2023-11-15T07:43:43Z</time>
      </trkpt>
      <trkpt lat="47.28302" lon="-1.54987">
        <ele>28</ele>
        <time>2023-11-15T07:43:57Z</time>
      </trkpt>
      <trkpt lat="47.28314" lon="-1.54977">
        <ele>28</ele>
        <time>2023-11-15T07:44:16Z</time>
      </trkpt>
      <trkpt lat="47.28323" lon="-1.54975">
        <ele>28</ele>
        <time>2023-11-15T07:44:28Z</time>
      </trkpt>
      <trkpt lat="47.28434" lon="-1.54984">
        <ele>28</ele>
        <time>2023-11-15T07:46:56Z</time>
      </trkpt>
      <trkpt lat="47.28504" lon="-1.54982">
        <ele>27</ele>
        <time>2023-11-15T07:48:30Z</time>
      </trkpt>
      <trkpt lat="47.28513" lon="-1.54985">
        <ele>27</ele>
        <time>2023-11-15T07:48:42Z</time>
      </trkpt>
      <trkpt lat="47.28533" lon="-1.55017">
        <ele>27</ele>
        <time>2023-11-15T07:49:21Z</time>
      </trkpt>
      <trkpt lat="47.28554" lon="-1.55044">
        <ele>27</ele>
        <time>2023-11-15T07:49:59Z</time>
      </trkpt>
      <trkpt lat="47.2856" lon="-1.55046">
        <ele>26</ele>
        <time>2023-11-15T07:50:07Z</time>
      </trkpt>
      <trkpt lat="47.28567" lon="-1.55046">
        <ele>26</ele>
        <time>2023-11-15T07:50:16Z</time>
      </trkpt>
      <trkpt lat="47.28572" lon="-1.55042">
        <ele>26</ele>
        <time>2023-11-15T07:50:24Z</time>
      </trkpt>
      <trkpt lat="47.28595" lon="-1.54993">
        <ele>26</ele>
        <time>2023-11-15T07:51:18Z</time>
      </trkpt>
      <trkpt lat="47.28607" lon="-1.54978">
        <ele>25</ele>
        <time>2023-11-15T07:51:39Z</time>
      </trkpt>
      <trkpt lat="47.28614" lon="-1.54975">
        <ele>25</ele>
        <time>2023-11-15T07:51:48Z</time>
      </trkpt>
      <trkpt lat="47.28803" lon="-1.54946">
        <ele>26</ele>
        <time>2023-11-15T07:56:02Z</time>
      </trkpt>
      <trkpt lat="47.28931" lon="-1.54923">
        <ele>27</ele>
        <time>2023-11-15T07:58:54Z</time>
      </trkpt>
      <trkpt lat="47.2897" lon="-1.54926">
        <ele>26</ele>
        <time>2023-11-15T07:59:46Z</time>
      </trkpt>
      <trkpt lat="47.28984" lon="-1.5493">
        <ele>26</ele>
        <time>2023-11-15T08:00:05Z</time>
      </trkpt>
      <trkpt lat="47.29002" lon="-1.54943">
        <ele>25</ele>
        <time>2023-11-15T08:00:32Z</time>
      </trkpt>
      <trkpt lat="47.29016" lon="-1.54933">
        <ele>26</ele>
        <time>2023-11-15T08:00:53Z</time>
      </trkpt>
      <trkpt lat="47.29034" lon="-1.54931">
        <ele>26</ele>
        <time>2023-11-15T08:01:17Z</time>
      </trkpt>
      <trkpt lat="47.29039" lon="-1.54922">
        <ele>26</ele>
        <time>2023-11-15T08:01:27Z</time>
      </trkpt>
      <trkpt lat="47.29046" lon="-1.54917">
        <ele>27</ele>
        <time>2023-11-15T08:01:38Z</time>
      </trkpt>
      <trkpt lat="47.29052" lon="-1.54916">
        <ele>27</ele>
        <time>2023-11-15T08:01:46Z</time>
      </trkpt>
      <trkpt lat="47.2914" lon="-1.54915">
        <ele>27</ele>
        <time>2023-11-15T08:03:43Z</time>
      </trkpt>
      <trkpt lat="47.29227" lon="-1.5491">
        <ele>28</ele>
        <time>2023-11-15T08:05:39Z</time>
      </trkpt>
      <trkpt lat="47.29251" lon="-1.54922">
        <ele>29</ele>
        <time>2023-11-15T08:06:13Z</time>
      </trkpt>
      <trkpt lat="47.29287" lon="-1.54917">
        <ele>30</ele>
        <time>2023-11-15T08:07:01Z</time>
      </trkpt>
      <trkpt lat="47.29306" lon="-1.54919">
        <ele>30</ele>
        <time>2023-11-15T08:07:27Z</time>
      </trkpt>
      <trkpt lat="47.29343" lon="-1.54912">
        <ele>31</ele>
        <time>2023-11-15T08:08:17Z</time>
      </trkpt>
      <trkpt lat="47.29356" lon="-1.54899">
        <ele>30</ele>
        <time>2023-11-15T08:08:38Z</time>
      </trkpt>
      <trkpt lat="47.29365" lon="-1.54895">
        <ele>30</ele>
        <time>2023-11-15T08:08:50Z</time>
      </trkpt>
      <trkpt lat="47.29407" lon="-1.54893">
        <ele>31</ele>
        <time>2023-11-15T08:09:46Z</time>
      </trkpt>
      <trkpt lat="47.29445" lon="-1.54886">
        <ele>31</ele>
        <time>2023-11-15T08:10:37Z</time>
      </trkpt>
      <trkpt lat="47.29469" lon="-1.54887">
        <ele>30</ele>
        <time>2023-11-15T08:11:09Z</time>
      </trkpt>
      <trkpt lat="47.29487" lon="-1.54891">
        <ele>31</ele>
        <time>2023-11-15T08:11:34Z</time>
      </trkpt>
      <trkpt lat="47.29585" lon="-1.54888">
        <ele>29</ele>
        <time>2023-11-15T08:13:45Z</time>
      </trkpt>
      <trkpt lat="47.29603" lon="-1.54884">
        <ele>29</ele>
        <time>2023-11-15T08:14:09Z</time>
      </trkpt>
      <trkpt lat="47.29618" lon="-1.54876">
        <ele>28</ele>
        <time>2023-11-15T08:14:30Z</time>
      </trkpt>
      <trkpt lat="47.29694" lon="-1.54859">
        <ele>27</ele>
        <time>2023-11-15T08:16:13Z</time>
      </trkpt>
      <trkpt lat="47.29712" lon="-1.54852">
        <ele>27</ele>
        <time>2023-11-15T08:16:38Z</time>
      </trkpt>
      <trkpt lat="47.29728" lon="-1.54855">
        <ele>27</ele>
        <time>2023-11-15T08:16:59Z</time>
      </trkpt>
      <trkpt lat="47.29786" lon="-1.54838">
        <ele>25</ele>
        <time>2023-11-15T08:18:18Z</time>
      </trkpt>
      <trkpt lat="47.29809" lon="-1.54845">
        <ele>25</ele>
        <time>2023-11-15T08:18:49Z</time>
      </trkpt>
      <trkpt lat="47.29833" lon="-1.54841">
        <ele>24</ele>
        <time>2023-11-15T08:19:22Z</time>
      </trkpt>
      <trkpt lat="47.29937" lon="-1.5481">
        <ele>26</ele>
        <time>2023-11-15T08:21:43Z</time>
      </trkpt>
      <trkpt lat="47.30078" lon="-1.54757">
        <ele>24</ele>
        <time>2023-11-15T08:24:57Z</time>
      </trkpt>
      <trkpt lat="47.30145" lon="-1.54724">
        <ele>23</ele>
        <time>2023-11-15T08:26:32Z</time>
      </trkpt>
      <trkpt lat="47.30254" lon="-1.54664">
        <ele>21</ele>
        <time>2023-11-15T08:29:07Z</time>
      </trkpt>
      <trkpt lat="47.30274" lon="-1.54656">
        <ele>20</ele>
        <time>2023-11-15T08:29:34Z</time>
      </trkpt>
      <trkpt lat="47.30291" lon="-1.54658">
        <ele>20</ele>
        <time>2023-11-15T08:29:57Z</time>
      </trkpt>
      <trkpt lat="47.30311" lon="-1.54668">
        <ele>19</ele>
        <time>2023-11-15T08:30:25Z</time>
      </trkpt>
      <trkpt lat="47.30325" lon="-1.5467">
        <ele>18</ele>
        <time>2023-11-15T08:30:44Z</time>
      </trkpt>
      <trkpt lat="47.30332" lon="-1.54669">
        <ele>18</ele>
        <time>2023-11-15T08:30:54Z</time>
      </trkpt>
      <trkpt lat="47.30362" lon="-1.54656">
        <ele>19</ele>
        <time>2023-11-15T08:31:35Z</time>
      </trkpt>
      <trkpt lat="47.30372" lon="-1.54645">
        <ele>20</ele>
        <time>2023-11-15T08:31:52Z</time>
      </trkpt>
      <trkpt lat="47.30398" lon="-1.54606">
        <ele>21</ele>
        <time>2023-11-15T08:32:41Z</time>
      </trkpt>
      <trkpt lat="47.30423" lon="-1.54579">
        <ele>22</ele>
        <time>2023-11-15T08:33:23Z</time>
      </trkpt>
      <trkpt lat="47.30518" lon="-1.54506">
        <ele>26</ele>
        <time>2023-11-15T08:35:46Z</time>
      </trkpt>
      <trkpt lat="47.30571" lon="-1.54462">
        <ele>27</ele>
        <time>2023-11-15T08:37:07Z</time>
      </trkpt>
      <trkpt lat="47.30672" lon="-1.54369">
        <ele>26</ele>
        <time>2023-11-15T08:39:46Z</time>
      </trkpt>
      <trkpt lat="47.30719" lon="-1.54331">
        <ele>24</ele>
        <time>2023-11-15T08:40:57Z</time>
      </trkpt>
      <trkpt lat="47.30736" lon="-1.54313">
        <ele>23</ele>
        <time>2023-11-15T08:41:25Z</time>
      </trkpt>
      <trkpt lat="47.30757" lon="-1.54304">
        <ele>22</ele>
        <time>2023-11-15T08:41:54Z</time>
      </trkpt>
      <trkpt lat="47.30769" lon="-1.54302">
        <ele>22</ele>
        <time>2023-11-15T08:42:11Z</time>
      </trkpt>
      <trkpt lat="47.30823" lon="-1.54275">
        <ele>19</ele>
        <time>2023-11-15T08:43:27Z</time>
      </trkpt>
      <trkpt lat="47.30839" lon="-1.54271">
        <ele>18</ele>
        <time>2023-11-15T08:43:48Z</time>
      </trkpt>
      <trkpt lat="47.3088" lon="-1.54268">
        <ele>16</ele>
        <time>2023-11-15T08:44:43Z</time>
      </trkpt>
      <trkpt lat="47.30931" lon="-1.54272">
        <ele>15</ele>
        <time>2023-11-15T08:45:51Z</time>
      </trkpt>
      <trkpt lat="47.30969" lon="-1.5429">
        <ele>14</ele>
        <time>2023-11-15T08:46:44Z</time>
      </trkpt>
      <trkpt lat="47.30977" lon="-1.54291">
        <ele>14</ele>
        <time>2023-11-15T08:46:55Z</time>
      </trkpt>
      <trkpt lat="47.30995" lon="-1.54284">
        <ele>13</ele>
        <time>2023-11-15T08:47:20Z</time>
      </trkpt>
      <trkpt lat="47.31021" lon="-1.54282">
        <ele>12</ele>
        <time>2023-11-15T08:47:55Z</time>
      </trkpt>
      <trkpt lat="47.31104" lon="-1.5429">
        <ele>10</ele>
        <time>2023-11-15T08:49:46Z</time>
      </trkpt>
      <trkpt lat="47.31143" lon="-1.54289">
        <ele>9</ele>
        <time>2023-11-15T08:50:38Z</time>
      </trkpt>
      <trkpt lat="47.31167" lon="-1.54292">
        <ele>9</ele>
        <time>2023-11-15T08:51:10Z</time>
      </trkpt>
      <trkpt lat="47.31196" lon="-1.54301">
        <ele>8</ele>
        <time>2023-11-15T08:51:50Z</time>
      </trkpt>
      <trkpt lat="47.31202" lon="-1.54305">
        <ele>8</ele>
        <time>2023-11-15T08:51:58Z</time>
      </trkpt>
      <trkpt lat="47.31212" lon="-1.54323">
        <ele>8</ele>
        <time>2023-11-15T08:52:19Z</time>
      </trkpt>
      <trkpt lat="47.31225" lon="-1.5433">
        <ele>8</ele>
        <time>2023-11-15T08:52:38Z</time>
      </trkpt>
      <trkpt lat="47.31234" lon="-1.54329">
        <ele>8</ele>
        <time>2023-11-15T08:52:50Z</time>
      </trkpt>
      <trkpt lat="47.31254" lon="-1.54307">
        <ele>7</ele>
        <time>2023-11-15T08:53:23Z</time>
      </trkpt>
      <trkpt lat="47.31277" lon="-1.54303">
        <ele>7</ele>
        <time>2023-11-15T08:53:54Z</time>
      </trkpt>
      <trkpt lat="47.31334" lon="-1.54307">
        <ele>9</ele>
        <time>2023-11-15T08:55:10Z</time>
      </trkpt>
      <trkpt lat="47.31352" lon="-1.54316">
        <ele>9</ele>
        <time>2023-11-15T08:55:36Z</time>
      </trkpt>
      <trkpt lat="47.3142" lon="-1.54323">
        <ele>8</ele>
        <time>2023-11-15T08:57:07Z</time>
      </trkpt>
      <trkpt lat="47.3145" lon="-1.54332">
        <ele>7</ele>
        <time>2023-11-15T08:57:47Z</time>
      </trkpt>
      <trkpt lat="47.315" lon="-1.54335">
        <ele>6</ele>
        <time>2023-11-15T08:58:54Z</time>
      </trkpt>
      <trkpt lat="47.31517" lon="-1.54326">
        <ele>6</ele>
        <time>2023-11-15T08:59:18Z</time>
      </trkpt>
      <trkpt lat="47.31598" lon="-1.54329">
        <ele>9</ele>
        <time>2023-11-15T09:01:06Z</time>
      </trkpt>
      <trkpt lat="47.31612" lon="-1.54326">
        <ele>10</ele>
        <time>2023-11-15T09:01:25Z</time>
      </trkpt>
      <trkpt lat="47.31631" lon="-1.54313">
        <ele>11</ele>
        <time>2023-11-15T09:01:53Z</time>
      </trkpt>
      <trkpt lat="47.31643" lon="-1.54295">
        <ele>11</ele>
        <time>2023-11-15T09:02:16Z</time>
      </trkpt>
      <trkpt lat="47.31701" lon="-1.54253">
        <ele>10</ele>
        <time>2023-11-15T09:03:42Z</time>
      </trkpt>
      <trkpt lat="47.31755" lon="-1.54196">
        <ele>11</ele>
        <time>2023-11-15T09:05:11Z</time>
      </trkpt>
      <trkpt lat="47.31769" lon="-1.54177">
        <ele>12</ele>
        <time>2023-11-15T09:05:36Z</time>
      </trkpt>
      <trkpt lat="47.31816" lon="-1.5409">
        <ele>12</ele>
        <time>2023-11-15T09:07:17Z</time>
      </trkpt>
      <trkpt lat="47.31967" lon="-1.53785">
        <ele>11</ele>
        <time>2023-11-15T09:12:59Z</time>
      </trkpt>
      <trkpt lat="47.3199" lon="-1.5376">
        <ele>11</ele>
        <time>2023-11-15T09:13:37Z</time>
      </trkpt>
      <trkpt lat="47.32" lon="-1.53744">
        <ele>11</ele>
        <time>2023-11-15T09:13:56Z</time>
      </trkpt>
      <trkpt lat="47.32033" lon="-1.53718">
        <ele>11</ele>
        <time>2023-11-15T09:14:46Z</time>
      </trkpt>
      <trkpt lat="47.32045" lon="-1.53706">
        <ele>12</ele>
        <time>2023-11-15T09:15:06Z</time>
      </trkpt>
      <trkpt lat="47.32056" lon="-1.5369">
        <ele>12</ele>
        <time>2023-11-15T09:15:26Z</time>
      </trkpt>
      <trkpt lat="47.32062" lon="-1.5367">
        <ele>14</ele>
        <time>2023-11-15T09:15:46Z</time>
      </trkpt>
      <trkpt lat="47.32066" lon="-1.53637">
        <ele>14</ele>
        <time>2023-11-15T09:16:16Z</time>
      </trkpt>
      <trkpt lat="47.32077" lon="-1.53615">
        <ele>15</ele>
        <time>2023-11-15T09:16:41Z</time>
      </trkpt>
      <trkpt lat="47.32105" lon="-1.53594">
        <ele>15</ele>
        <time>2023-11-15T09:17:23Z</time>
      </trkpt>
      <trkpt lat="47.32123" lon="-1.53587">
        <ele>15</ele>
        <time>2023-11-15T09:17:48Z</time>
      </trkpt>
      <trkpt lat="47.322" lon="-1.53583">
        <ele>15</ele>
        <time>2023-11-15T09:19:31Z</time>
      </trkpt>
      <trkpt lat="47.32222" lon="-1.53586">
        <ele>14</ele>
        <time>2023-11-15T09:20:00Z</time>
      </trkpt>
      <trkpt lat="47.32233" lon="-1.53584">
        <ele>14</ele>
        <time>2023-11-15T09:20:15Z</time>
      </trkpt>
      <trkpt lat="47.32239" lon="-1.53578">
        <ele>14</ele>
        <time>2023-11-15T09:20:25Z</time>
      </trkpt>
      <trkpt lat="47.32247" lon="-1.53562">
        <ele>15</ele>
        <time>2023-11-15T09:20:43Z</time>
      </trkpt>
      <trkpt lat="47.3225" lon="-1.53538">
        <ele>15</ele>
        <time>2023-11-15T09:21:05Z</time>
      </trkpt>
      <trkpt lat="47.3225" lon="-1.5351">
        <ele>16</ele>
        <time>2023-11-15T09:21:30Z</time>
      </trkpt>
      <trkpt lat="47.32256" lon="-1.53508">
        <ele>16</ele>
        <time>2023-11-15T09:21:38Z</time>
      </trkpt>
      <trkpt lat="47.32336" lon="-1.53555">
        <ele>19</ele>
        <time>2023-11-15T09:23:33Z</time>
      </trkpt>
      <trkpt lat="47.32573" lon="-1.53671">
        <ele>29</ele>
        <time>2023-11-15T09:29:06Z</time>
      </trkpt>
      <trkpt lat="47.32606" lon="-1.53685">
        <ele>28</ele>
        <time>2023-11-15T09:29:52Z</time>
      </trkpt>
      <trkpt lat="47.32648" lon="-1.53698">
        <ele>26</ele>
        <time>2023-11-15T09:30:49Z</time>
      </trkpt>
      <trkpt lat="47.32669" lon="-1.53697">
        <ele>25</ele>
        <time>2023-11-15T09:31:18Z</time>
      </trkpt>
      <trkpt lat="47.32717" lon="-1.53701">
        <ele>23</ele>
        <time>2023-11-15T09:32:22Z</time>
      </trkpt>
      <trkpt lat="47.32742" lon="-1.53697">
        <ele>21</ele>
        <time>2023-11-15T09:32:55Z</time>
      </trkpt>
      <trkpt lat="47.32758" lon="-1.5369">
        <ele>20</ele>
        <time>2023-11-15T09:33:18Z</time>
      </trkpt>
      <trkpt lat="47.32856" lon="-1.53676">
        <ele>16</ele>
        <time>2023-11-15T09:35:29Z</time>
      </trkpt>
      <trkpt lat="47.32852" lon="-1.53663">
        <ele>16</ele>
        <time>2023-11-15T09:35:42Z</time>
      </trkpt>
      <trkpt lat="47.32829" lon="-1.53626">
        <ele>17</ele>
        <time>2023-11-15T09:36:27Z</time>
      </trkpt>
      <trkpt lat="47.3283" lon="-1.53615">
        <ele>17</ele>
        <time>2023-11-15T09:36:37Z</time>
      </trkpt>
      <trkpt lat="47.32835" lon="-1.53608">
        <ele>16</ele>
        <time>2023-11-15T09:36:46Z</time>
      </trkpt>
      <trkpt lat="47.32891" lon="-1.5356">
        <ele>14</ele>
        <time>2023-11-15T09:38:13Z</time>
      </trkpt>
      <trkpt lat="47.32948" lon="-1.53532">
        <ele>13</ele>
        <time>2023-11-15T09:39:33Z</time>
      </trkpt>
      <trkpt lat="47.32977" lon="-1.53522">
        <ele>12</ele>
        <time>2023-11-15T09:40:13Z</time>
      </trkpt>
      <trkpt lat="47.32988" lon="-1.53515">
        <ele>12</ele>
        <time>2023-11-15T09:40:29Z</time>
      </trkpt>
      <trkpt lat="47.33011" lon="-1.53491">
        <ele>13</ele>
        <time>2023-11-15T09:41:06Z</time>
      </trkpt>
      <trkpt lat="47.33028" lon="-1.53482">
        <ele>14</ele>
        <time>2023-11-15T09:41:30Z</time>
      </trkpt>
      <trkpt lat="47.33093" lon="-1.53466">
        <ele>17</ele>
        <time>2023-11-15T09:42:58Z</time>
      </trkpt>
      <trkpt lat="47.33128" lon="-1.53463">
        <ele>19</ele>
        <time>2023-11-15T09:43:45Z</time>
      </trkpt>
      <trkpt lat="47.33141" lon="-1.53468">
        <ele>20</ele>
        <time>2023-11-15T09:44:03Z</time>
      </trkpt>
      <trkpt lat="47.33183" lon="-1.53477">
        <ele>22</ele>
        <time>2023-11-15T09:45:00Z</time>
      </trkpt>
      <trkpt lat="47.33202" lon="-1.53484">
        <ele>22</ele>
        <time>2023-11-15T09:45:26Z</time>
      </trkpt>
      <trkpt lat="47.33244" lon="-1.53505">
        <ele>23</ele>
        <time>2023-11-15T09:46:25Z</time>
      </trkpt>
      <trkpt lat="47.33255" lon="-1.53514">
        <ele>23</ele>
        <time>2023-11-15T09:46:42Z</time>
      </trkpt>
      <trkpt lat="47.3326" lon="-1.53548">
        <ele>22</ele>
        <time>2023-11-15T09:47:13Z</time>
      </trkpt>
      <trkpt lat="47.33312" lon="-1.5353">
        <ele>22</ele>
        <time>2023-11-15T09:48:25Z</time>
      </trkpt>
      <trkpt lat="47.33378" lon="-1.53503">
        <ele>21</ele>
        <time>2023-11-15T09:49:56Z</time>
      </trkpt>
      <trkpt lat="47.3341" lon="-1.53499">
        <ele>20</ele>
        <time>2023-11-15T09:50:39Z</time>
      </trkpt>
      <trkpt lat="47.3349" lon="-1.53483">
        <ele>17</ele>
        <time>2023-11-15T09:52:27Z</time>
      </trkpt>
      <trkpt lat="47.33496" lon="-1.53477">
        <ele>17</ele>
        <time>2023-11-15T09:52:36Z</time>
      </trkpt>
      <trkpt lat="47.33499" lon="-1.53466">
        <ele>17</ele>
        <time>2023-11-15T09:52:47Z</time>
      </trkpt>
      <trkpt lat="47.33519" lon="-1.53308">
        <ele>16</ele>
        <time>2023-11-15T09:55:12Z</time>
      </trkpt>
      <trkpt lat="47.33523" lon="-1.53297">
        <ele>16</ele>
        <time>2023-11-15T09:55:24Z</time>
      </trkpt>
      <trkpt lat="47.3353" lon="-1.5329">
        <ele>16</ele>
        <time>2023-11-15T09:55:35Z</time>
      </trkpt>
      <trkpt lat="47.33561" lon="-1.5327">
        <ele>14</ele>
        <time>2023-11-15T09:56:20Z</time>
      </trkpt>
      <trkpt lat="47.33653" lon="-1.53216">
        <ele>9</ele>
        <time>2023-11-15T09:58:32Z</time>
      </trkpt>
      <trkpt lat="47.33699" lon="-1.53192">
        <ele>7</ele>
        <time>2023-11-15T09:59:37Z</time>
      </trkpt>
      <trkpt lat="47.33704" lon="-1.53187">
        <ele>7</ele>
        <time>2023-11-15T09:59:45Z</time>
      </trkpt>
      <trkpt lat="47.33717" lon="-1.53184">
        <ele>7</ele>
        <time>2023-11-15T10:00:03Z</time>
      </trkpt>
      <trkpt lat="47.33774" lon="-1.5315">
        <ele>7</ele>
        <time>2023-11-15T10:01:25Z</time>
      </trkpt>
      <trkpt lat="47.33807" lon="-1.53084">
        <ele>6</ele>
        <time>2023-11-15T10:02:39Z</time>
      </trkpt>
      <trkpt lat="47.33816" lon="-1.53058">
        <ele>6</ele>
        <time>2023-11-15T10:03:06Z</time>
      </trkpt>
      <trkpt lat="47.3382" lon="-1.53054">
        <ele>6</ele>
        <time>2023-11-15T10:03:12Z</time>
      </trkpt>
      <trkpt lat="47.33826" lon="-1.53059">
        <ele>6</ele>
        <time>2023-11-15T10:03:21Z</time>
      </trkpt>
      <trkpt lat="47.33861" lon="-1.53118">
        <ele>7</ele>
        <time>2023-11-15T10:04:32Z</time>
      </trkpt>
      <trkpt lat="47.33865" lon="-1.53122">
        <ele>8</ele>
        <time>2023-11-15T10:04:39Z</time>
      </trkpt>
      <trkpt lat="47.33873" lon="-1.5312">
        <ele>8</ele>
        <time>2023-11-15T10:04:49Z</time>
      </trkpt>
      <trkpt lat="47.33973" lon="-1.5286">
        <ele>9</ele>
        <time>2023-11-15T10:09:20Z</time>
      </trkpt>
      <trkpt lat="47.33993" lon="-1.52876">
        <ele>10</ele>
        <time>2023-11-15T10:09:50Z</time>
      </trkpt>
      <trkpt lat="47.34007" lon="-1.52891">
        <ele>10</ele>
        <time>2023-11-15T10:10:13Z</time>
      </trkpt>
      <trkpt lat="47.34011" lon="-1.5285">
        <ele>10</ele>
        <time>2023-11-15T10:10:51Z</time>
      </trkpt>
      <trkpt lat="47.34018" lon="-1.5281">
        <ele>11</ele>
        <time>2023-11-15T10:11:28Z</time>
      </trkpt>
      <trkpt lat="47.34029" lon="-1.52778">
        <ele>11</ele>
        <time>2023-11-15T10:12:00Z</time>
      </trkpt>
      <trkpt lat="47.34058" lon="-1.52652">
        <ele>14</ele>
        <time>2023-11-15T10:14:01Z</time>
      </trkpt>
      <trkpt lat="47.34048" lon="-1.52646">
        <ele>14</ele>
        <time>2023-11-15T10:14:15Z</time>
      </trkpt>
      <trkpt lat="47.33941" lon="-1.52602">
        <ele>7</ele>
        <time>2023-11-15T10:16:43Z</time>
      </trkpt>
      <trkpt lat="47.33947" lon="-1.52516">
        <ele>7</ele>
        <time>2023-11-15T10:18:02Z</time>
      </trkpt>
      <trkpt lat="47.33951" lon="-1.52495">
        <ele>7</ele>
        <time>2023-11-15T10:18:21Z</time>
      </trkpt>
      <trkpt lat="47.33993" lon="-1.52476">
        <ele>9</ele>
        <time>2023-11-15T10:19:20Z</time>
      </trkpt>
      <trkpt lat="47.34017" lon="-1.52468">
        <ele>11</ele>
        <time>2023-11-15T10:19:53Z</time>
      </trkpt>
      <trkpt lat="47.34029" lon="-1.52519">
        <ele>12</ele>
        <time>2023-11-15T10:20:42Z</time>
      </trkpt>
      <trkpt lat="47.34031" lon="-1.52542">
        <ele>13</ele>
        <time>2023-11-15T10:21:03Z</time>
      </trkpt>
      <trkpt lat="47.34039" lon="-1.5256">
        <ele>13</ele>
        <time>2023-11-15T10:21:22Z</time>
      </trkpt>
      <trkpt lat="47.34051" lon="-1.52555">
        <ele>14</ele>
        <time>2023-11-15T10:21:39Z</time>
      </trkpt>
      <trkpt lat="47.34062" lon="-1.52542">
        <ele>15</ele>
        <time>2023-11-15T10:21:57Z</time>
      </trkpt>
      <trkpt lat="47.34067" lon="-1.525">
        <ele>14</ele>
        <time>2023-11-15T10:22:36Z</time>
      </trkpt>
      <trkpt lat="47.34073" lon="-1.52492">
        <ele>14</ele>
        <time>2023-11-15T10:22:47Z</time>
      </trkpt>
      <trkpt lat="47.34126" lon="-1.52506">
        <ele>18</ele>
        <time>2023-11-15T10:23:59Z</time>
      </trkpt>
      <trkpt lat="47.34126" lon="-1.52524">
        <ele>18</ele>
        <time>2023-11-15T10:24:15Z</time>
      </trkpt>
      <trkpt lat="47.34151" lon="-1.52533">
        <ele>20</ele>
        <time>2023-11-15T10:24:49Z</time>
      </trkpt>
      <trkpt lat="47.34159" lon="-1.52544">
        <ele>21</ele>
        <time>2023-11-15T10:25:04Z</time>
      </trkpt>
      <trkpt lat="47.34174" lon="-1.52489">
        <ele>22</ele>
        <time>2023-11-15T10:25:57Z</time>
      </trkpt>
      <trkpt lat="47.34181" lon="-1.52492">
        <ele>22</ele>
        <time>2023-11-15T10:26:07Z</time>
      </trkpt>
      <trkpt lat="47.34187" lon="-1.52468">
        <ele>23</ele>
        <time>2023-11-15T10:26:30Z</time>
      </trkpt>
      <trkpt lat="47.34233" lon="-1.5249">
        <ele>27</ele>
        <time>2023-11-15T10:27:35Z</time>
      </trkpt>
      <trkpt lat="47.34245" lon="-1.52519">
        <ele>28</ele>
        <time>2023-11-15T10:28:06Z</time>
      </trkpt>
      <trkpt lat="47.34255" lon="-1.52534">
        <ele>27</ele>
        <time>2023-11-15T10:28:25Z</time>
      </trkpt>
      <trkpt lat="47.34276" lon="-1.52545">
        <ele>27</ele>
        <time>2023-11-15T10:28:54Z</time>
      </trkpt>
      <trkpt lat="47.34296" lon="-1.52582">
        <ele>25</ele>
        <time>2023-11-15T10:29:37Z</time>
      </trkpt>
      <trkpt lat="47.34303" lon="-1.52606">
        <ele>23</ele>
        <time>2023-11-15T10:30:01Z</time>
      </trkpt>
      <trkpt lat="47.34396" lon="-1.52706">
        <ele>20</ele>
        <time>2023-11-15T10:32:34Z</time>
      </trkpt>
      <trkpt lat="47.34405" lon="-1.52711">
        <ele>20</ele>
        <time>2023-11-15T10:32:47Z</time>
      </trkpt>
      <trkpt lat="47.34511" lon="-1.52549">
        <ele>23</ele>
        <time>2023-11-15T10:36:11Z</time>
      </trkpt>
      <trkpt lat="47.34521" lon="-1.52539">
        <ele>23</ele>
        <time>2023-11-15T10:36:27Z</time>
      </trkpt>
      <trkpt lat="47.34538" lon="-1.5253">
        <ele>23</ele>
        <time>2023-11-15T10:36:51Z</time>
      </trkpt>
      <trkpt lat="47.3457" lon="-1.52487">
        <ele>24</ele>
        <time>2023-11-15T10:37:49Z</time>
      </trkpt>
      <trkpt lat="47.34586" lon="-1.52459">
        <ele>24</ele>
        <time>2023-11-15T10:38:22Z</time>
      </trkpt>
      <trkpt lat="47.34607" lon="-1.52433">
        <ele>24</ele>
        <time>2023-11-15T10:38:58Z</time>
      </trkpt>
      <trkpt lat="47.34612" lon="-1.5243">
        <ele>24</ele>
        <time>2023-11-15T10:39:06Z</time>
      </trkpt>
      <trkpt lat="47.34772" lon="-1.52425">
        <ele>24</ele>
        <time>2023-11-15T10:42:39Z</time>
      </trkpt>
      <trkpt lat="47.34775" lon="-1.52433">
        <ele>24</ele>
        <time>2023-11-15T10:42:48Z</time>
      </trkpt>
      <trkpt lat="47.34785" lon="-1.52504">
        <ele>26</ele>
        <time>2023-11-15T10:43:53Z</time>
      </trkpt>
      <trkpt lat="47.34796" lon="-1.52513">
        <ele>26</ele>
        <time>2023-11-15T10:44:10Z</time>
      </trkpt>
      <trkpt lat="47.34913" lon="-1.52527">
        <ele>26</ele>
        <time>2023-11-15T10:46:47Z</time>
      </trkpt>
      <trkpt lat="47.34952" lon="-1.52544">
        <ele>26</ele>
        <time>2023-11-15T10:47:41Z</time>
      </trkpt>
      <trkpt lat="47.34964" lon="-1.52542">
        <ele>26</ele>
        <time>2023-11-15T10:47:57Z</time>
      </trkpt>
      <trkpt lat="47.35024" lon="-1.52496">
        <ele>25</ele>
        <time>2023-11-15T10:49:27Z</time>
      </trkpt>
      <trkpt lat="47.35029" lon="-1.5249">
        <ele>25</ele>
        <time>2023-11-15T10:49:36Z</time>
      </trkpt>
      <trkpt lat="47.35048" lon="-1.52482">
        <ele>25</ele>
        <time>2023-11-15T10:50:02Z</time>
      </trkpt>
      <trkpt lat="47.35089" lon="-1.52457">
        <ele>24</ele>
        <time>2023-11-15T10:51:01Z</time>
      </trkpt>
      <trkpt lat="47.35112" lon="-1.52438">
        <ele>23</ele>
        <time>2023-11-15T10:51:36Z</time>
      </trkpt>
      <trkpt lat="47.35123" lon="-1.52411">
        <ele>23</ele>
        <time>2023-11-15T10:52:05Z</time>
      </trkpt>
      <trkpt lat="47.35127" lon="-1.52394">
        <ele>22</ele>
        <time>2023-11-15T10:52:21Z</time>
      </trkpt>
      <trkpt lat="47.35137" lon="-1.52328">
        <ele>22</ele>
        <time>2023-11-15T10:53:22Z</time>
      </trkpt>
      <trkpt lat="47.35143" lon="-1.52304">
        <ele>21</ele>
        <time>2023-11-15T10:53:45Z</time>
      </trkpt>
      <trkpt lat="47.35149" lon="-1.52302">
        <ele>21</ele>
        <time>2023-11-15T10:53:54Z</time>
      </trkpt>
      <trkpt lat="47.3518" lon="-1.52309">
        <ele>19</ele>
        <time>2023-11-15T10:54:36Z</time>
      </trkpt>
      <trkpt lat="47.35241" lon="-1.52313">
        <ele>14</ele>
        <time>2023-11-15T10:55:57Z</time>
      </trkpt>
      <trkpt lat="47.35271" lon="-1.52319">
        <ele>12</ele>
        <time>2023-11-15T10:56:37Z</time>
      </trkpt>
      <trkpt lat="47.35288" lon="-1.52315">
        <ele>12</ele>
        <time>2023-11-15T10:57:00Z</time>
      </trkpt>
      <trkpt lat="47.3536" lon="-1.52265">
        <ele>13</ele>
        <time>2023-11-15T10:58:47Z</time>
      </trkpt>
      <trkpt lat="47.35384" lon="-1.52256">
        <ele>15</ele>
        <time>2023-11-15T10:59:20Z</time>
      </trkpt>
      <trkpt lat="47.35416" lon="-1.52235">
        <ele>18</ele>
        <time>2023-11-15T11:00:06Z</time>
      </trkpt>
      <trkpt lat="47.35424" lon="-1.52236">
        <ele>18</ele>
        <time>2023-11-15T11:00:17Z</time>
      </trkpt>
      <trkpt lat="47.35432" lon="-1.52231">
        <ele>19</ele>
        <time>2023-11-15T11:00:29Z</time>
      </trkpt>
      <trkpt lat="47.3544" lon="-1.52224">
        <ele>19</ele>
        <time>2023-11-15T11:00:41Z</time>
      </trkpt>
      <trkpt lat="47.35451" lon="-1.52206">
        <ele>20</ele>
        <time>2023-11-15T11:01:03Z</time>
      </trkpt>
      <trkpt lat="47.35462" lon="-1.52174">
        <ele>21</ele>
        <time>2023-11-15T11:01:35Z</time>
      </trkpt>
      <trkpt lat="47.35475" lon="-1.52161">
        <ele>21</ele>
        <time>2023-11-15T11:01:56Z</time>
      </trkpt>
      <trkpt lat="47.35515" lon="-1.52145">
        <ele>21</ele>
        <time>2023-11-15T11:02:52Z</time>
      </trkpt>
      <trkpt lat="47.35562" lon="-1.52132">
        <ele>20</ele>
        <time>2023-11-15T11:03:56Z</time>
      </trkpt>
      <trkpt lat="47.35626" lon="-1.52099">
        <ele>19</ele>
        <time>2023-11-15T11:05:26Z</time>
      </trkpt>
      <trkpt lat="47.35637" lon="-1.52112">
        <ele>19</ele>
        <time>2023-11-15T11:05:45Z</time>
      </trkpt>
      <trkpt lat="47.3564" lon="-1.5212">
        <ele>19</ele>
        <time>2023-11-15T11:05:53Z</time>
      </trkpt>
      <trkpt lat="47.35649" lon="-1.52121">
        <ele>18</ele>
        <time>2023-11-15T11:06:05Z</time>
      </trkpt>
      <trkpt lat="47.35718" lon="-1.52183">
        <ele>16</ele>
        <time>2023-11-15T11:07:53Z</time>
      </trkpt>
      <trkpt lat="47.35812" lon="-1.52248">
        <ele>14</ele>
        <time>2023-11-15T11:10:11Z</time>
      </trkpt>
      <trkpt lat="47.35834" lon="-1.52266">
        <ele>14</ele>
        <time>2023-11-15T11:10:45Z</time>
      </trkpt>
      <trkpt lat="47.35852" lon="-1.52274">
        <ele>14</ele>
        <time>2023-11-15T11:11:10Z</time>
      </trkpt>
      <trkpt lat="47.35862" lon="-1.52273">
        <ele>14</ele>
        <time>2023-11-15T11:11:23Z</time>
      </trkpt>
      <trkpt lat="47.35897" lon="-1.52257">
        <ele>14</ele>
        <time>2023-11-15T11:12:12Z</time>
      </trkpt>
      <trkpt lat="47.35912" lon="-1.52255">
        <ele>14</ele>
        <time>2023-11-15T11:12:32Z</time>
      </trkpt>
      <trkpt lat="47.3592" lon="-1.52251">
        <ele>14</ele>
        <time>2023-11-15T11:12:44Z</time>
      </trkpt>
      <trkpt lat="47.35982" lon="-1.52144">
        <ele>10</ele>
        <time>2023-11-15T11:14:51Z</time>
      </trkpt>
      <trkpt lat="47.35999" lon="-1.52125">
        <ele>10</ele>
        <time>2023-11-15T11:15:19Z</time>
      </trkpt>
      <trkpt lat="47.36009" lon="-1.52123">
        <ele>10</ele>
        <time>2023-11-15T11:15:33Z</time>
      </trkpt>
      <trkpt lat="47.36016" lon="-1.52125">
        <ele>10</ele>
        <time>2023-11-15T11:15:42Z</time>
      </trkpt>
      <trkpt lat="47.36056" lon="-1.5221">
        <ele>10</ele>
        <time>2023-11-15T11:17:16Z</time>
      </trkpt>
      <trkpt lat="47.36071" lon="-1.52228">
        <ele>10</ele>
        <time>2023-11-15T11:17:42Z</time>
      </trkpt>
      <trkpt lat="47.36081" lon="-1.52233">
        <ele>10</ele>
        <time>2023-11-15T11:17:56Z</time>
      </trkpt>
      <trkpt lat="47.36149" lon="-1.52254">
        <ele>11</ele>
        <time>2023-11-15T11:19:29Z</time>
      </trkpt>
      <trkpt lat="47.36202" lon="-1.52268">
        <ele>11</ele>
        <time>2023-11-15T11:20:40Z</time>
      </trkpt>
      <trkpt lat="47.36221" lon="-1.52279">
        <ele>11</ele>
        <time>2023-11-15T11:21:08Z</time>
      </trkpt>
      <trkpt lat="47.36229" lon="-1.52287">
        <ele>11</ele>
        <time>2023-11-15T11:21:21Z</time>
      </trkpt>
      <trkpt lat="47.36241" lon="-1.52309">
        <ele>11</ele>
        <time>2023-11-15T11:21:46Z</time>
      </trkpt>
      <trkpt lat="47.36269" lon="-1.52395">
        <ele>12</ele>
        <time>2023-11-15T11:23:12Z</time>
      </trkpt>
      <trkpt lat="47.36293" lon="-1.52444">
        <ele>12</ele>
        <time>2023-11-15T11:24:07Z</time>
      </trkpt>
      <trkpt lat="47.36317" lon="-1.52503">
        <ele>10</ele>
        <time>2023-11-15T11:25:09Z</time>
      </trkpt>
      <trkpt lat="47.36361" lon="-1.52559">
        <ele>10</ele>
        <time>2023-11-15T11:26:27Z</time>
      </trkpt>
      <trkpt lat="47.36412" lon="-1.52639">
        <ele>8</ele>
        <time>2023-11-15T11:28:06Z</time>
      </trkpt>
      <trkpt lat="47.3642" lon="-1.52644">
        <ele>8</ele>
        <time>2023-11-15T11:28:18Z</time>
      </trkpt>
      <trkpt lat="47.36435" lon="-1.52639">
        <ele>8</ele>
        <time>2023-11-15T11:28:38Z</time>
      </trkpt>
      <trkpt lat="47.36475" lon="-1.52632">
        <ele>8</ele>
        <time>2023-11-15T11:29:32Z</time>
      </trkpt>
      <trkpt lat="47.36502" lon="-1.52623">
        <ele>9</ele>
        <time>2023-11-15T11:30:09Z</time>
      </trkpt>
      <trkpt lat="47.36518" lon="-1.52614">
        <ele>9</ele>
        <time>2023-11-15T11:30:32Z</time>
      </trkpt>
      <trkpt lat="47.3654" lon="-1.52596">
        <ele>10</ele>
        <time>2023-11-15T11:31:05Z</time>
      </trkpt>
      <trkpt lat="47.36565" lon="-1.52565">
        <ele>11</ele>
        <time>2023-11-15T11:31:49Z</time>
      </trkpt>
      <trkpt lat="47.36597" lon="-1.52517">
        <ele>11</ele>
        <time>2023-11-15T11:32:50Z</time>
      </trkpt>
      <trkpt lat="47.36605" lon="-1.52501">
        <ele>11</ele>
        <time>2023-11-15T11:33:08Z</time>
      </trkpt>
      <trkpt lat="47.36613" lon="-1.52474">
        <ele>10</ele>
        <time>2023-11-15T11:33:34Z</time>
      </trkpt>
      <trkpt lat="47.36624" lon="-1.52452">
        <ele>10</ele>
        <time>2023-11-15T11:33:59Z</time>
      </trkpt>
      <trkpt lat="47.36636" lon="-1.52395">
        <ele>11</ele>
        <time>2023-11-15T11:34:53Z</time>
      </trkpt>
      <trkpt lat="47.36651" lon="-1.52249">
        <ele>11</ele>
        <time>2023-11-15T11:37:06Z</time>
      </trkpt>
      <trkpt lat="47.36659" lon="-1.52214">
        <ele>11</ele>
        <time>2023-11-15T11:37:40Z</time>
      </trkpt>
      <trkpt lat="47.36703" lon="-1.52116">
        <ele>10</ele>
        <time>2023-11-15T11:39:26Z</time>
      </trkpt>
      <trkpt lat="47.36783" lon="-1.51906">
        <ele>8</ele>
        <time>2023-11-15T11:43:04Z</time>
      </trkpt>
      <trkpt lat="47.36808" lon="-1.51829">
        <ele>9</ele>
        <time>2023-11-15T11:44:21Z</time>
      </trkpt>
      <trkpt lat="47.3681" lon="-1.51816">
        <ele>9</ele>
        <time>2023-11-15T11:44:33Z</time>
      </trkpt>
      <trkpt lat="47.36808" lon="-1.51775">
        <ele>8</ele>
        <time>2023-11-15T11:45:10Z</time>
      </trkpt>
      <trkpt lat="47.36798" lon="-1.517">
        <ele>9</ele>
        <time>2023-11-15T11:46:19Z</time>
      </trkpt>
      <trkpt lat="47.36802" lon="-1.51684">
        <ele>10</ele>
        <time>2023-11-15T11:46:35Z</time>
      </trkpt>
      <trkpt lat="47.36823" lon="-1.51681">
        <ele>10</ele>
        <time>2023-11-15T11:47:03Z</time>
      </trkpt>
      <trkpt lat="47.36996" lon="-1.51675">
        <ele>12</ele>
        <time>2023-11-15T11:50:54Z</time>
      </trkpt>
      <trkpt lat="47.37011" lon="-1.51676">
        <ele>12</ele>
        <time>2023-11-15T11:51:14Z</time>
      </trkpt>
      <trkpt lat="47.37024" lon="-1.51685">
        <ele>12</ele>
        <time>2023-11-15T11:51:33Z</time>
      </trkpt>
      <trkpt lat="47.3704" lon="-1.51701">
        <ele>12</ele>
        <time>2023-11-15T11:51:59Z</time>
      </trkpt>
      <trkpt lat="47.37051" lon="-1.51706">
        <ele>12</ele>
        <time>2023-11-15T11:52:14Z</time>
      </trkpt>
      <trkpt lat="47.37067" lon="-1.51706">
        <ele>12</ele>
        <time>2023-11-15T11:52:35Z</time>
      </trkpt>
      <trkpt lat="47.37075" lon="-1.51711">
        <ele>12</ele>
        <time>2023-11-15T11:52:47Z</time>
      </trkpt>
      <trkpt lat="47.37079" lon="-1.51717">
        <ele>13</ele>
        <time>2023-11-15T11:52:55Z</time>
      </trkpt>
      <trkpt lat="47.37087" lon="-1.51715">
        <ele>13</ele>
        <time>2023-11-15T11:53:06Z</time>
      </trkpt>
      <trkpt lat="47.37096" lon="-1.51707">
        <ele>13</ele>
        <time>2023-11-15T11:53:20Z</time>
      </trkpt>
      <trkpt lat="47.37105" lon="-1.51704">
        <ele>13</ele>
        <time>2023-11-15T11:53:32Z</time>
      </trkpt>
      <trkpt lat="47.37192" lon="-1.51558">
        <ele>13</ele>
        <time>2023-11-15T11:56:28Z</time>
      </trkpt>
      <trkpt lat="47.3724" lon="-1.51467">
        <ele>10</ele>
        <time>2023-11-15T11:58:12Z</time>
      </trkpt>
      <trkpt lat="47.37262" lon="-1.5144">
        <ele>10</ele>
        <time>2023-11-15T11:58:50Z</time>
      </trkpt>
      <trkpt lat="47.37273" lon="-1.51432">
        <ele>10</ele>
        <time>2023-11-15T11:59:06Z</time>
      </trkpt>
      <trkpt lat="47.37279" lon="-1.51431">
        <ele>10</ele>
        <time>2023-11-15T11:59:14Z</time>
      </trkpt>
      <trkpt lat="47.37346" lon="-1.51429">
        <ele>9</ele>
        <time>2023-11-15T12:00:44Z</time>
      </trkpt>
      <trkpt lat="47.37358" lon="-1.51425">
        <ele>9</ele>
        <time>2023-11-15T12:01:00Z</time>
      </trkpt>
      <trkpt lat="47.37375" lon="-1.51405">
        <ele>10</ele>
        <time>2023-11-15T12:01:29Z</time>
      </trkpt>
      <trkpt lat="47.37393" lon="-1.51378">
        <ele>11</ele>
        <time>2023-11-15T12:02:04Z</time>
      </trkpt>
      <trkpt lat="47.37412" lon="-1.51342">
        <ele>12</ele>
        <time>2023-11-15T12:02:45Z</time>
      </trkpt>
      <trkpt lat="47.37417" lon="-1.51321">
        <ele>12</ele>
        <time>2023-11-15T12:03:05Z</time>
      </trkpt>
      <trkpt lat="47.37425" lon="-1.51237">
        <ele>11</ele>
        <time>2023-11-15T12:04:22Z</time>
      </trkpt>
      <trkpt lat="47.37425" lon="-1.51174">
        <ele>9</ele>
        <time>2023-11-15T12:05:18Z</time>
      </trkpt>
      <trkpt lat="47.37431" lon="-1.51088">
        <ele>8</ele>
        <time>2023-11-15T12:06:37Z</time>
      </trkpt>
      <trkpt lat="47.37431" lon="-1.51074">
        <ele>8</ele>
        <time>2023-11-15T12:06:49Z</time>
      </trkpt>
      <trkpt lat="47.37421" lon="-1.51061">
        <ele>8</ele>
        <time>2023-11-15T12:07:07Z</time>
      </trkpt>
      <trkpt lat="47.3742" lon="-1.51053">
        <ele>8</ele>
        <time>2023-11-15T12:07:14Z</time>
      </trkpt>
      <trkpt lat="47.37441" lon="-1.50934">
        <ele>7</ele>
        <time>2023-11-15T12:09:06Z</time>
      </trkpt>
      <trkpt lat="47.37457" lon="-1.50894">
        <ele>6</ele>
        <time>2023-11-15T12:09:48Z</time>
      </trkpt>
      <trkpt lat="47.37488" lon="-1.50871">
        <ele>6</ele>
        <time>2023-11-15T12:10:34Z</time>
      </trkpt>
      <trkpt lat="47.37494" lon="-1.50869">
        <ele>6</ele>
        <time>2023-11-15T12:10:42Z</time>
      </trkpt>
      <trkpt lat="47.37511" lon="-1.50868">
        <ele>6</ele>
        <time>2023-11-15T12:11:05Z</time>
      </trkpt>
      <trkpt lat="47.37559" lon="-1.50875">
        <ele>7</ele>
        <time>2023-11-15T12:12:09Z</time>
      </trkpt>
      <trkpt lat="47.37577" lon="-1.50867">
        <ele>6</ele>
        <time>2023-11-15T12:12:34Z</time>
      </trkpt>
      <trkpt lat="47.37586" lon="-1.50855">
        <ele>6</ele>
        <time>2023-11-15T12:12:50Z</time>
      </trkpt>
      <trkpt lat="47.37624" lon="-1.50781">
        <ele>7</ele>
        <time>2023-11-15T12:14:14Z</time>
      </trkpt>
      <trkpt lat="47.37631" lon="-1.50753">
        <ele>7</ele>
        <time>2023-11-15T12:14:41Z</time>
      </trkpt>
      <trkpt lat="47.37642" lon="-1.50731">
        <ele>8</ele>
        <time>2023-11-15T12:15:06Z</time>
      </trkpt>
      <trkpt lat="47.37642" lon="-1.50684">
        <ele>8</ele>
        <time>2023-11-15T12:15:48Z</time>
      </trkpt>
      <trkpt lat="47.37644" lon="-1.50675">
        <ele>8</ele>
        <time>2023-11-15T12:15:57Z</time>
      </trkpt>
      <trkpt lat="47.37648" lon="-1.50671">
        <ele>9</ele>
        <time>2023-11-15T12:16:03Z</time>
      </trkpt>
      <trkpt lat="47.37672" lon="-1.50671">
        <ele>9</ele>
        <time>2023-11-15T12:16:35Z</time>
      </trkpt>
      <trkpt lat="47.37687" lon="-1.50667">
        <ele>9</ele>
        <time>2023-11-15T12:16:56Z</time>
      </trkpt>
      <trkpt lat="47.37731" lon="-1.5067">
        <ele>11</ele>
        <time>2023-11-15T12:17:55Z</time>
      </trkpt>
      <trkpt lat="47.37805" lon="-1.50655">
        <ele>13</ele>
        <time>2023-11-15T12:19:34Z</time>
      </trkpt>
      <trkpt lat="47.37843" lon="-1.50654">
        <ele>14</ele>
        <time>2023-11-15T12:20:25Z</time>
      </trkpt>
      <trkpt lat="47.37882" lon="-1.50648">
        <ele>13</ele>
        <time>2023-11-15T12:21:17Z</time>
      </trkpt>
      <trkpt lat="47.37894" lon="-1.50648">
        <ele>13</ele>
        <time>2023-11-15T12:21:33Z</time>
      </trkpt>
      <trkpt lat="47.379" lon="-1.50651">
        <ele>13</ele>
        <time>2023-11-15T12:21:42Z</time>
      </trkpt>
      <trkpt lat="47.37911" lon="-1.50666">
        <ele>14</ele>
        <time>2023-11-15T12:22:02Z</time>
      </trkpt>
      <trkpt lat="47.3792" lon="-1.50671">
        <ele>14</ele>
        <time>2023-11-15T12:22:15Z</time>
      </trkpt>
      <trkpt lat="47.37926" lon="-1.5067">
        <ele>13</ele>
        <time>2023-11-15T12:22:23Z</time>
      </trkpt>
      <trkpt lat="47.37944" lon="-1.50658">
        <ele>11</ele>
        <time>2023-11-15T12:22:49Z</time>
      </trkpt>
      <trkpt lat="47.37958" lon="-1.5066">
        <ele>10</ele>
        <time>2023-11-15T12:23:08Z</time>
      </trkpt>
      <trkpt lat="47.37964" lon="-1.50664">
        <ele>10</ele>
        <time>2023-11-15T12:23:17Z</time>
      </trkpt>
      <trkpt lat="47.37991" lon="-1.50698">
        <ele>9</ele>
        <time>2023-11-15T12:24:04Z</time>
      </trkpt>
      <trkpt lat="47.38004" lon="-1.50709">
        <ele>8</ele>
        <time>2023-11-15T12:24:24Z</time>
      </trkpt>
      <trkpt lat="47.38026" lon="-1.50717">
        <ele>7</ele>
        <time>2023-11-15T12:24:54Z</time>
      </trkpt>
      <trkpt lat="47.38059" lon="-1.50716">
        <ele>6</ele>
        <time>2023-11-15T12:25:38Z</time>
      </trkpt>
      <trkpt lat="47.38081" lon="-1.50728">
        <ele>5</ele>
        <time>2023-11-15T12:26:09Z</time>
      </trkpt>
      <trkpt lat="47.38116" lon="-1.50763">
        <ele>5</ele>
        <time>2023-11-15T12:27:06Z</time>
      </trkpt>
      <trkpt lat="47.38139" lon="-1.50774">
        <ele>6</ele>
        <time>2023-11-15T12:27:38Z</time>
      </trkpt>
      <trkpt lat="47.38161" lon="-1.50775">
        <ele>6</ele>
        <time>2023-11-15T12:28:08Z</time>
      </trkpt>
      <trkpt lat="47.38175" lon="-1.50782">
        <ele>6</ele>
        <time>2023-11-15T12:28:27Z</time>
      </trkpt>
      <trkpt lat="47.38214" lon="-1.50824">
        <ele>6</ele>
        <time>2023-11-15T12:29:32Z</time>
      </trkpt>
      <trkpt lat="47.3824" lon="-1.5086">
        <ele>6</ele>
        <time>2023-11-15T12:30:19Z</time>
      </trkpt>
      <trkpt lat="47.38249" lon="-1.50889">
        <ele>6</ele>
        <time>2023-11-15T12:30:48Z</time>
      </trkpt>
      <trkpt lat="47.38259" lon="-1.50938">
        <ele>7</ele>
        <time>2023-11-15T12:31:34Z</time>
      </trkpt>
      <trkpt lat="47.38275" lon="-1.5099">
        <ele>7</ele>
        <time>2023-11-15T12:32:26Z</time>
      </trkpt>
      <trkpt lat="47.38284" lon="-1.51004">
        <ele>7</ele>
        <time>2023-11-15T12:32:43Z</time>
      </trkpt>
      <trkpt lat="47.38301" lon="-1.5102">
        <ele>8</ele>
        <time>2023-11-15T12:33:10Z</time>
      </trkpt>
      <trkpt lat="47.38313" lon="-1.51045">
        <ele>8</ele>
        <time>2023-11-15T12:33:38Z</time>
      </trkpt>
      <trkpt lat="47.38318" lon="-1.51047">
        <ele>8</ele>
        <time>2023-11-15T12:33:45Z</time>
      </trkpt>
      <trkpt lat="47.38339" lon="-1.51045">
        <ele>8</ele>
        <time>2023-11-15T12:34:13Z</time>
      </trkpt>
      <trkpt lat="47.38348" lon="-1.51052">
        <ele>8</ele>
        <time>2023-11-15T12:34:27Z</time>
      </trkpt>
      <trkpt lat="47.3837" lon="-1.51094">
        <ele>7</ele>
        <time>2023-11-15T12:35:14Z</time>
      </trkpt>
      <trkpt lat="47.38458" lon="-1.51288">
        <ele>6</ele>
        <time>2023-11-15T12:38:45Z</time>
      </trkpt>
      <trkpt lat="47.38472" lon="-1.513">
        <ele>6</ele>
        <time>2023-11-15T12:39:07Z</time>
      </trkpt>
      <trkpt lat="47.38496" lon="-1.51329">
        <ele>7</ele>
        <time>2023-11-15T12:39:48Z</time>
      </trkpt>
      <trkpt lat="47.38513" lon="-1.5136">
        <ele>7</ele>
        <time>2023-11-15T12:40:24Z</time>
      </trkpt>
      <trkpt lat="47.38653" lon="-1.51726">
        <ele>8</ele>
        <time>2023-11-15T12:46:44Z</time>
      </trkpt>
      <trkpt lat="47.3874" lon="-1.51966">
        <ele>7</ele>
        <time>2023-11-15T12:50:50Z</time>
      </trkpt>
      <trkpt lat="47.38758" lon="-1.52033">
        <ele>7</ele>
        <time>2023-11-15T12:51:55Z</time>
      </trkpt>
      <trkpt lat="47.38806" lon="-1.52288">
        <ele>9</ele>
        <time>2023-11-15T12:55:55Z</time>
      </trkpt>
      <trkpt lat="47.38842" lon="-1.5253">
        <ele>11</ele>
        <time>2023-11-15T12:59:38Z</time>
      </trkpt>
      <trkpt lat="47.38852" lon="-1.52615">
        <ele>11</ele>
        <time>2023-11-15T13:00:56Z</time>
      </trkpt>
      <trkpt lat="47.38879" lon="-1.52698">
        <ele>12</ele>
        <time>2023-11-15T13:02:20Z</time>
      </trkpt>
      <trkpt lat="47.38882" lon="-1.52758">
        <ele>13</ele>
        <time>2023-11-15T13:03:14Z</time>
      </trkpt>
      <trkpt lat="47.38878" lon="-1.52788">
        <ele>14</ele>
        <time>2023-11-15T13:03:41Z</time>
      </trkpt>
      <trkpt lat="47.38849" lon="-1.52914">
        <ele>14</ele>
        <time>2023-11-15T13:05:42Z</time>
      </trkpt>
      <trkpt lat="47.38844" lon="-1.52979">
        <ele>14</ele>
        <time>2023-11-15T13:06:41Z</time>
      </trkpt>
      <trkpt lat="47.38847" lon="-1.52983">
        <ele>14</ele>
        <time>2023-11-15T13:06:46Z</time>
      </trkpt>
      <trkpt lat="47.38865" lon="-1.52975">
        <ele>13</ele>
        <time>2023-11-15T13:07:11Z</time>
      </trkpt>
      <trkpt lat="47.38881" lon="-1.52974">
        <ele>13</ele>
        <time>2023-11-15T13:07:33Z</time>
      </trkpt>
      <trkpt lat="47.38895" lon="-1.52976">
        <ele>13</ele>
        <time>2023-11-15T13:07:51Z</time>
      </trkpt>
      <trkpt lat="47.38952" lon="-1.52994">
        <ele>12</ele>
        <time>2023-11-15T13:09:09Z</time>
      </trkpt>
      <trkpt lat="47.38959" lon="-1.52999">
        <ele>12</ele>
        <time>2023-11-15T13:09:20Z</time>
      </trkpt>
      <trkpt lat="47.38964" lon="-1.53007">
        <ele>12</ele>
        <time>2023-11-15T13:09:29Z</time>
      </trkpt>
      <trkpt lat="47.38973" lon="-1.53038">
        <ele>12</ele>
        <time>2023-11-15T13:10:00Z</time>
      </trkpt>
      <trkpt lat="47.38976" lon="-1.53081">
        <ele>13</ele>
        <time>2023-11-15T13:10:39Z</time>
      </trkpt>
      <trkpt lat="47.38967" lon="-1.53225">
        <ele>16</ele>
        <time>2023-11-15T13:12:50Z</time>
      </trkpt>
      <trkpt lat="47.38974" lon="-1.53227">
        <ele>16</ele>
        <time>2023-11-15T13:12:59Z</time>
      </trkpt>
      <trkpt lat="47.38983" lon="-1.53212">
        <ele>16</ele>
        <time>2023-11-15T13:13:17Z</time>
      </trkpt>
      <trkpt lat="47.39033" lon="-1.53103">
        <ele>14</ele>
        <time>2023-11-15T13:15:16Z</time>
      </trkpt>
      <trkpt lat="47.39069" lon="-1.53042">
        <ele>14</ele>
        <time>2023-11-15T13:16:29Z</time>
      </trkpt>
      <trkpt lat="47.39089" lon="-1.53014">
        <ele>13</ele>
        <time>2023-11-15T13:17:06Z</time>
      </trkpt>
      <trkpt lat="47.39111" lon="-1.52993">
        <ele>13</ele>
        <time>2023-11-15T13:17:41Z</time>
      </trkpt>
      <trkpt lat="47.39162" lon="-1.52963">
        <ele>12</ele>
        <time>2023-11-15T13:18:54Z</time>
      </trkpt>
      <trkpt lat="47.39215" lon="-1.52922">
        <ele>11</ele>
        <time>2023-11-15T13:20:14Z</time>
      </trkpt>
      <trkpt lat="47.39242" lon="-1.52904">
        <ele>10</ele>
        <time>2023-11-15T13:20:54Z</time>
      </trkpt>
      <trkpt lat="47.3927" lon="-1.52892">
        <ele>10</ele>
        <time>2023-11-15T13:21:33Z</time>
      </trkpt>
      <trkpt lat="47.39333" lon="-1.52873">
        <ele>9</ele>
        <time>2023-11-15T13:22:58Z</time>
      </trkpt>
      <trkpt lat="47.39355" lon="-1.52863">
        <ele>9</ele>
        <time>2023-11-15T13:23:29Z</time>
      </trkpt>
      <trkpt lat="47.39458" lon="-1.52803">
        <ele>9</ele>
        <time>2023-11-15T13:25:57Z</time>
      </trkpt>
      <trkpt lat="47.3949" lon="-1.52791">
        <ele>10</ele>
        <time>2023-11-15T13:26:41Z</time>
      </trkpt>
      <trkpt lat="47.3952" lon="-1.52786">
        <ele>10</ele>
        <time>2023-11-15T13:27:21Z</time>
      </trkpt>
      <trkpt lat="47.39523" lon="-1.52781">
        <ele>10</ele>
        <time>2023-11-15T13:27:27Z</time>
      </trkpt>
      <trkpt lat="47.39531" lon="-1.52776">
        <ele>10</ele>
        <time>2023-11-15T13:27:39Z</time>
      </trkpt>
      <trkpt lat="47.39834" lon="-1.53371">
        <ele>12</ele>
        <time>2023-11-15T13:38:51Z</time>
      </trkpt>
      <trkpt lat="47.39857" lon="-1.53422">
        <ele>13</ele>
        <time>2023-11-15T13:39:47Z</time>
      </trkpt>
      <trkpt lat="47.39914" lon="-1.53533">
        <ele>14</ele>
        <time>2023-11-15T13:41:53Z</time>
      </trkpt>
      <trkpt lat="47.3998" lon="-1.53672">
        <ele>17</ele>
        <time>2023-11-15T13:44:26Z</time>
      </trkpt>
      <trkpt lat="47.40004" lon="-1.53543">
        <ele>15</ele>
        <time>2023-11-15T13:46:27Z</time>
      </trkpt>
      <trkpt lat="47.40005" lon="-1.53496">
        <ele>14</ele>
        <time>2023-11-15T13:47:09Z</time>
      </trkpt>
      <trkpt lat="47.40008" lon="-1.53483">
        <ele>13</ele>
        <time>2023-11-15T13:47:22Z</time>
      </trkpt>
      <trkpt lat="47.40026" lon="-1.53437">
        <ele>12</ele>
        <time>2023-11-15T13:48:10Z</time>
      </trkpt>
      <trkpt lat="47.40047" lon="-1.53395">
        <ele>11</ele>
        <time>2023-11-15T13:48:57Z</time>
      </trkpt>
      <trkpt lat="47.40092" lon="-1.53325">
        <ele>10</ele>
        <time>2023-11-15T13:50:24Z</time>
      </trkpt>
      <trkpt lat="47.40097" lon="-1.53332">
        <ele>10</ele>
        <time>2023-11-15T13:50:33Z</time>
      </trkpt>
      <trkpt lat="47.40116" lon="-1.53449">
        <ele>11</ele>
        <time>2023-11-15T13:52:22Z</time>
      </trkpt>
      <trkpt lat="47.40125" lon="-1.53478">
        <ele>11</ele>
        <time>2023-11-15T13:52:51Z</time>
      </trkpt>
      <trkpt lat="47.40142" lon="-1.53505">
        <ele>11</ele>
        <time>2023-11-15T13:53:24Z</time>
      </trkpt>
      <trkpt lat="47.40178" lon="-1.53536">
        <ele>10</ele>
        <time>2023-11-15T13:54:20Z</time>
      </trkpt>
      <trkpt lat="47.40184" lon="-1.53548">
        <ele>10</ele>
        <time>2023-11-15T13:54:33Z</time>
      </trkpt>
      <trkpt lat="47.4019" lon="-1.53569">
        <ele>10</ele>
        <time>2023-11-15T13:54:54Z</time>
      </trkpt>
      <trkpt lat="47.40201" lon="-1.53637">
        <ele>10</ele>
        <time>2023-11-15T13:55:57Z</time>
      </trkpt>
      <trkpt lat="47.4022" lon="-1.53841">
        <ele>12</ele>
        <time>2023-11-15T13:59:03Z</time>
      </trkpt>
      <trkpt lat="47.39967" lon="-1.5373">
        <ele>18</ele>
        <time>2023-11-15T14:04:55Z</time>
      </trkpt>
      <trkpt lat="47.3972" lon="-1.53717">
        <ele>21</ele>
        <time>2023-11-15T14:10:25Z</time>
      </trkpt>
      <trkpt lat="47.39467" lon="-1.53528">
        <ele>11</ele>
        <time>2023-11-15T14:16:43Z</time>
      </trkpt>
      <trkpt lat="47.39311" lon="-1.53507">
        <ele>17</ele>
        <time>2023-11-15T14:20:12Z</time>
      </trkpt>
      <trkpt lat="47.3884" lon="-1.53635">
        <ele>23</ele>
        <time>2023-11-15T14:30:51Z</time>
      </trkpt>
      <trkpt lat="47.38625" lon="-1.53648">
        <ele>26</ele>
        <time>2023-11-15T14:35:38Z</time>
      </trkpt>
      <trkpt lat="47.38372" lon="-1.53704">
        <ele>26</ele>
        <time>2023-11-15T14:41:20Z</time>
      </trkpt>
      <trkpt lat="47.37945" lon="-1.53919">
        <ele>29</ele>
        <time>2023-11-15T14:51:22Z</time>
      </trkpt>
      <trkpt lat="47.37779" lon="-1.53901">
        <ele>29</ele>
        <time>2023-11-15T14:55:04Z</time>
      </trkpt>
      <trkpt lat="47.37599" lon="-1.54073">
        <ele>31</ele>
        <time>2023-11-15T14:59:50Z</time>
      </trkpt>
      <trkpt lat="47.37288" lon="-1.54082">
        <ele>22</ele>
        <time>2023-11-15T15:06:45Z</time>
      </trkpt>
      <trkpt lat="47.37096" lon="-1.54064">
        <ele>19</ele>
        <time>2023-11-15T15:11:02Z</time>
      </trkpt>
      <trkpt lat="47.36948" lon="-1.54176">
        <ele>19</ele>
        <time>2023-11-15T15:14:44Z</time>
      </trkpt>
      <trkpt lat="47.36686" lon="-1.54348">
        <ele>19</ele>
        <time>2023-11-15T15:21:07Z</time>
      </trkpt>
      <trkpt lat="47.36474" lon="-1.543">
        <ele>20</ele>
        <time>2023-11-15T15:25:53Z</time>
      </trkpt>
      <trkpt lat="47.36442" lon="-1.53897">
        <ele>24</ele>
        <time>2023-11-15T15:31:59Z</time>
      </trkpt>
      <trkpt lat="47.36285" lon="-1.53734">
        <ele>27</ele>
        <time>2023-11-15T15:36:16Z</time>
      </trkpt>
      <trkpt lat="47.36189" lon="-1.53781">
        <ele>27</ele>
        <time>2023-11-15T15:38:31Z</time>
      </trkpt>
      <trkpt lat="47.36012" lon="-1.53811">
        <ele>28</ele>
        <time>2023-11-15T15:42:28Z</time>
      </trkpt>
      <trkpt lat="47.35468" lon="-1.53532">
        <ele>33</ele>
        <time>2023-11-15T15:55:17Z</time>
      </trkpt>
      <trkpt lat="47.34843" lon="-1.53335">
        <ele>37</ele>
        <time>2023-11-15T16:09:30Z</time>
      </trkpt>
      <trkpt lat="47.34774" lon="-1.53082">
        <ele>29</ele>
        <time>2023-11-15T16:13:36Z</time>
      </trkpt>
      <trkpt lat="47.3441" lon="-1.52863">
        <ele>20</ele>
        <time>2023-11-15T16:22:21Z</time>
      </trkpt>
      <trkpt lat="47.34119" lon="-1.52614">
        <ele>19</ele>
        <time>2023-11-15T16:29:50Z</time>
      </trkpt>
      <trkpt lat="47.34058" lon="-1.52717">
        <ele>13</ele>
        <time>2023-11-15T16:31:53Z</time>
      </trkpt>
      <trkpt lat="47.33869" lon="-1.53142">
        <ele>8</ele>
        <time>2023-11-15T16:39:33Z</time>
      </trkpt>
      <trkpt lat="47.33799" lon="-1.5309">
        <ele>6</ele>
        <time>2023-11-15T16:41:18Z</time>
      </trkpt>
      <trkpt lat="47.33517" lon="-1.53275">
        <ele>16</ele>
        <time>2023-11-15T16:48:10Z</time>
      </trkpt>
      <trkpt lat="47.33491" lon="-1.53519">
        <ele>18</ele>
        <time>2023-11-15T16:51:53Z</time>
      </trkpt>
      <trkpt lat="47.33253" lon="-1.53579">
        <ele>22</ele>
        <time>2023-11-15T16:57:15Z</time>
      </trkpt>
      <trkpt lat="47.33232" lon="-1.53481">
        <ele>23</ele>
        <time>2023-11-15T16:58:48Z</time>
      </trkpt>
      <trkpt lat="47.32929" lon="-1.53498">
        <ele>13</ele>
        <time>2023-11-15T17:05:33Z</time>
      </trkpt>
      <trkpt lat="47.32812" lon="-1.53609">
        <ele>17</ele>
        <time>2023-11-15T17:08:38Z</time>
      </trkpt>
      <trkpt lat="47.32856" lon="-1.53699">
        <ele>17</ele>
        <time>2023-11-15T17:10:19Z</time>
      </trkpt>
      <trkpt lat="47.32592" lon="-1.53706">
        <ele>28</ele>
        <time>2023-11-15T17:16:11Z</time>
      </trkpt>
      <trkpt lat="47.3222" lon="-1.53508">
        <ele>16</ele>
        <time>2023-11-15T17:24:59Z</time>
      </trkpt>
      <trkpt lat="47.31755" lon="-1.54222">
        <ele>10</ele>
        <time>2023-11-15T17:39:54Z</time>
      </trkpt>
      <trkpt lat="47.31498" lon="-1.54302">
        <ele>6</ele>
        <time>2023-11-15T17:45:45Z</time>
      </trkpt>
      <trkpt lat="47.30784" lon="-1.54258">
        <ele>21</ele>
        <time>2023-11-15T18:01:39Z</time>
      </trkpt>
      <trkpt lat="47.30331" lon="-1.5468">
        <ele>18</ele>
        <time>2023-11-15T18:13:34Z</time>
      </trkpt>
      <trkpt lat="47.28551" lon="-1.54984">
        <ele>26</ele>
        <time>2023-11-15T18:53:25Z</time>
      </trkpt>
      <trkpt lat="47.26825" lon="-1.54608">
        <ele>29</ele>
        <time>2023-11-15T19:32:13Z</time>
      </trkpt>
    </trkseg>
  </trk>
</gpx>